Time;durP1;ratioP1;P1;durP2;ratioP2;P2;SDS_P1;SDS_P2;PMS_P1;PMS_P2;Temp;Humidity;BMP_temperature;BMP_pressure;BME280_temperature;BME280_humidity;BME280_pressure;Samples;Min_cycle;Max_cycle;Signal;HPM_P1;HPM_P2
2021/03/16 00:01:50;;;;;;;3.40;1.70;;;8.30;99.90;;;;;;5029537;28;20219;-76
2021/03/16 00:04:17;;;;;;;5.88;1.65;;;8.30;99.90;;;;;;5030320;28;20248;-76
2021/03/16 00:06:43;;;;;;;5.28;1.70;;;8.30;99.90;;;;;;5030315;28;20188;-76
2021/03/16 00:09:10;;;;;;;4.45;2.30;;;8.30;99.90;;;;;;5027533;28;20757;-77
2021/03/16 00:11:36;;;;;;;6.55;2.05;;;8.20;99.90;;;;;;5026550;28;20254;-76
2021/03/16 00:14:03;;;;;;;6.28;2.35;;;8.30;99.90;;;;;;5029919;28;20207;-77
2021/03/16 00:16:30;;;;;;;5.00;2.25;;;8.30;99.90;;;;;;5027613;28;20208;-77
2021/03/16 00:18:56;;;;;;;6.47;1.60;;;8.30;99.90;;;;;;5029799;28;20196;-77
2021/03/16 00:21:22;;;;;;;4.60;1.80;;;8.30;99.90;;;;;;5031268;28;20191;-78
2021/03/16 00:23:49;;;;;;;3.80;2.38;;;8.30;99.90;;;;;;5030494;28;20203;-79
2021/03/16 00:26:15;;;;;;;7.60;1.80;;;8.30;99.90;;;;;;5018820;28;20227;-79
2021/03/16 00:28:41;;;;;;;6.60;1.67;;;8.30;99.90;;;;;;5030606;28;20227;-80
2021/03/16 00:31:08;;;;;;;7.35;2.65;;;8.30;99.90;;;;;;5030795;28;20221;-79
2021/03/16 00:33:35;;;;;;;2.47;1.70;;;8.30;99.90;;;;;;5030936;28;20215;-80
2021/03/16 00:36:02;;;;;;;3.70;1.75;;;8.30;99.90;;;;;;5020187;28;20277;-80
2021/03/16 00:38:28;;;;;;;3.95;1.55;;;8.30;99.90;;;;;;5013058;28;20579;-80
2021/03/16 00:40:54;;;;;;;6.95;1.63;;;8.20;99.90;;;;;;5018178;28;20273;-79
2021/03/16 00:43:20;;;;;;;2.65;1.20;;;8.20;99.90;;;;;;5027477;28;20274;-80
2021/03/16 00:45:47;;;;;;;9.35;1.75;;;8.30;99.90;;;;;;5032423;28;20215;-80
2021/03/16 00:48:18;;;;;;;4.75;1.58;;;8.30;99.90;;;;;;5027807;28;20224;-80
2021/03/16 00:50:44;;;;;;;6.70;1.90;;;8.30;99.90;;;;;;5014424;28;20235;-79
2021/03/16 00:53:10;;;;;;;4.60;1.65;;;8.20;99.90;;;;;;5021095;28;20192;-79
2021/03/16 00:55:37;;;;;;;2.90;1.55;;;8.20;99.90;;;;;;5033590;28;20250;-79
2021/03/16 00:58:03;;;;;;;6.63;2.13;;;8.20;99.90;;;;;;5032539;28;20265;-80
2021/03/16 01:00:30;;;;;;;3.90;1.38;;;8.20;99.90;;;;;;5034240;28;20230;-80
2021/03/16 01:02:56;;;;;;;4.20;1.60;;;8.20;99.90;;;;;;5027776;28;20197;-79
2021/03/16 01:05:24;;;;;;;4.25;1.60;;;8.20;99.90;;;;;;5014760;28;20197;-79
2021/03/16 01:07:50;;;;;;;5.78;2.25;;;8.20;99.90;;;;;;5022876;28;20247;-80
2021/03/16 01:10:19;;;;;;;7.60;1.50;;;8.20;99.90;;;;;;5023546;28;20215;-80
2021/03/16 01:12:45;;;;;;;4.20;1.65;;;8.20;99.90;;;;;;5034098;28;20562;-79
2021/03/16 01:15:13;;;;;;;6.90;1.48;;;8.20;99.90;;;;;;5032916;28;20230;-79
2021/03/16 01:17:39;;;;;;;4.15;1.60;;;8.20;99.90;;;;;;5033020;28;20199;-79
2021/03/16 01:20:10;;;;;;;9.23;2.10;;;8.20;99.90;;;;;;5033717;28;20215;-79
2021/03/16 01:22:37;;;;;;;7.85;1.92;;;8.20;99.90;;;;;;5027487;28;20191;-79
2021/03/16 01:25:04;;;;;;;9.40;1.63;;;8.20;99.90;;;;;;5014101;28;20220;-79
2021/03/16 01:27:31;;;;;;;7.47;3.25;;;8.20;99.90;;;;;;5020393;28;20216;-79
2021/03/16 01:29:57;;;;;;;4.70;1.52;;;8.20;99.90;;;;;;5013748;28;20220;-79
2021/03/16 01:32:23;;;;;;;4.63;1.52;;;8.10;99.90;;;;;;5021375;28;20641;-79
2021/03/16 01:34:49;;;;;;;8.23;2.47;;;8.10;99.90;;;;;;5021944;28;20213;-79
2021/03/16 01:37:15;;;;;;;4.43;1.80;;;8.20;99.90;;;;;;5033626;28;20211;-79
2021/03/16 01:39:44;;;;;;;4.07;1.75;;;8.20;99.90;;;;;;5033725;28;20203;-79
2021/03/16 01:42:10;;;;;;;7.80;2.47;;;8.10;99.90;;;;;;5033655;28;20766;-79
2021/03/16 01:44:36;;;;;;;3.92;1.60;;;8.20;99.90;;;;;;5026047;28;20222;-79
2021/03/16 01:47:03;;;;;;;5.70;1.70;;;8.10;99.90;;;;;;5031782;28;20274;-79
2021/03/16 01:49:30;;;;;;;4.50;1.75;;;8.20;99.90;;;;;;5032280;28;20228;-79
2021/03/16 01:51:57;;;;;;;4.32;1.60;;;8.20;99.90;;;;;;5033773;28;20188;-79
2021/03/16 01:54:23;;;;;;;4.53;1.65;;;8.20;99.90;;;;;;4998538;28;20751;-79
2021/03/16 01:56:51;;;;;;;7.57;1.58;;;8.20;99.90;;;;;;5008552;28;20214;-79
2021/03/16 01:59:18;;;;;;;6.05;2.10;;;8.20;99.90;;;;;;5023360;28;20557;-79
2021/03/16 02:01:45;;;;;;;7.65;1.75;;;8.20;99.90;;;;;;5003978;28;20199;-79
2021/03/16 02:04:11;;;;;;;5.40;1.83;;;8.20;99.90;;;;;;4996490;28;20565;-79
2021/03/16 02:06:44;;;;;;;4.25;1.42;;;8.20;99.90;;;;;;5002824;28;20221;-78
2021/03/16 02:09:15;;;;;;;4.13;1.30;;;8.10;99.90;;;;;;5003156;28;20253;-79
2021/03/16 02:11:48;;;;;;;8.65;1.80;;;8.10;99.90;;;;;;5000153;28;20201;-78
2021/03/16 02:14:20;;;;;;;5.70;1.90;;;8.10;99.90;;;;;;5026864;28;20785;-79
2021/03/16 02:16:53;;;;;;;3.17;1.70;;;8.10;99.90;;;;;;5016147;28;20335;-79
2021/03/16 02:19:56;;;;;;;5.68;1.55;;;8.00;99.90;;;;;;5007404;28;20219;-79
2021/03/16 02:22:25;;;;;;;5.90;1.55;;;8.00;99.90;;;;;;4993332;28;20196;-79
2021/03/16 02:25:06;;;;;;;4.57;1.98;;;8.00;99.90;;;;;;4998726;28;20738;-78
2021/03/16 02:27:49;;;;;;;5.85;1.45;;;8.00;99.90;;;;;;5007905;28;20215;-79
2021/03/16 02:30:17;;;;;;;4.28;1.67;;;8.00;99.90;;;;;;5009395;28;20219;-79
2021/03/16 02:32:46;;;;;;;4.50;1.83;;;8.10;99.90;;;;;;4993465;28;20199;-79
2021/03/16 02:35:15;;;;;;;6.68;3.45;;;8.10;99.90;;;;;;4997201;28;20204;-79
2021/03/16 02:37:42;;;;;;;4.82;1.83;;;8.10;99.90;;;;;;5012012;28;20200;-79
2021/03/16 02:40:10;;;;;;;2.83;1.70;;;8.10;99.90;;;;;;5009034;28;20838;-81
2021/03/16 02:42:39;;;;;;;4.90;1.65;;;8.10;99.90;;;;;;5008249;28;20223;-80
2021/03/16 02:45:08;;;;;;;2.78;1.80;;;8.10;99.90;;;;;;5012235;28;20216;-80
2021/03/16 02:47:35;;;;;;;9.10;2.97;;;8.10;99.90;;;;;;5021538;28;20196;-80
2021/03/16 02:50:02;;;;;;;7.75;1.92;;;8.10;99.90;;;;;;5019796;28;20224;-79
2021/03/16 02:52:29;;;;;;;5.32;2.05;;;8.10;99.90;;;;;;5012624;28;20216;-80
2021/03/16 02:54:56;;;;;;;5.78;2.05;;;8.10;99.90;;;;;;5011947;28;20192;-79
2021/03/16 02:57:24;;;;;;;2.67;1.27;;;8.10;99.90;;;;;;5012567;28;20255;-79
2021/03/16 02:59:52;;;;;;;2.90;1.42;;;8.10;99.90;;;;;;5002650;28;20203;-79
2021/03/16 03:02:19;;;;;;;4.28;2.65;;;8.10;99.90;;;;;;5011228;28;20196;-79
2021/03/16 03:04:47;;;;;;;5.50;1.80;;;8.10;99.90;;;;;;5012237;28;20220;-80
2021/03/16 03:07:14;;;;;;;7.38;1.55;;;8.10;99.90;;;;;;5013175;28;20848;-80
2021/03/16 03:09:41;;;;;;;5.57;1.48;;;8.10;99.90;;;;;;5003323;28;20227;-79
2021/03/16 03:12:08;;;;;;;5.55;1.42;;;8.10;99.90;;;;;;5032045;28;20204;-77
2021/03/16 03:14:36;;;;;;;5.03;1.60;;;8.10;99.90;;;;;;5010101;28;20212;-77
2021/03/16 03:17:04;;;;;;;8.40;1.50;;;8.10;99.90;;;;;;5008919;28;20220;-77
2021/03/16 03:19:30;;;;;;;4.60;1.50;;;8.10;99.90;;;;;;5010717;28;20395;-77
2021/03/16 03:22:13;;;;;;;10.82;2.30;;;8.10;99.90;;;;;;5092245;27;20549;-76
2021/03/16 03:24:44;;;;;;;2.40;1.25;;;8.00;99.90;;;;;;5088383;28;20217;-77
2021/03/16 03:27:18;;;;;;;4.88;2.15;;;8.10;99.90;;;;;;5088288;28;20221;-76
2021/03/16 03:29:45;;;;;;;3.20;1.33;;;8.10;99.90;;;;;;5088279;28;20214;-78
2021/03/16 03:32:13;;;;;;;5.72;1.33;;;8.10;99.90;;;;;;5091725;28;20859;-79
2021/03/16 03:34:41;;;;;;;3.45;2.03;;;8.10;99.90;;;;;;5087953;28;20226;-78
2021/03/16 03:37:09;;;;;;;5.82;1.60;;;8.10;99.90;;;;;;5088792;28;20216;-79
2021/03/16 03:39:37;;;;;;;3.17;1.80;;;8.10;99.90;;;;;;5098824;28;20214;-78
2021/03/16 03:42:06;;;;;;;3.97;1.95;;;8.20;99.90;;;;;;5100584;28;20213;-78
2021/03/16 03:44:34;;;;;;;5.15;1.38;;;8.20;99.90;;;;;;5096873;28;20587;-77
2021/03/16 03:47:02;;;;;;;3.28;1.35;;;8.10;99.90;;;;;;5094354;28;20274;-77
2021/03/16 03:49:29;;;;;;;4.55;1.45;;;8.10;99.90;;;;;;5087464;28;20198;-78
2021/03/16 03:51:57;;;;;;;5.22;1.50;;;8.10;99.90;;;;;;5086792;28;20829;-78
2021/03/16 03:54:25;;;;;;;4.50;1.25;;;8.10;99.90;;;;;;5087745;28;20249;-78
2021/03/16 03:56:52;;;;;;;6.43;2.40;;;8.10;99.90;;;;;;5087441;28;20217;-77
2021/03/16 03:59:19;;;;;;;5.55;2.30;;;8.10;99.90;;;;;;5087606;28;20201;-79
2021/03/16 04:01:47;;;;;;;2.47;1.38;;;8.10;99.90;;;;;;5087667;28;20213;-78
2021/03/16 04:04:13;;;;;;;5.63;1.25;;;8.20;99.90;;;;;;5105727;28;20213;-79
2021/03/16 04:06:41;;;;;;;3.88;1.33;;;8.20;99.90;;;;;;5106884;28;20228;-78
2021/03/16 04:09:07;;;;;;;11.00;1.95;;;8.20;99.90;;;;;;5091172;28;20228;-78
2021/03/16 04:11:35;;;;;;;8.40;2.75;;;8.20;99.90;;;;;;5096217;28;20213;-78
2021/03/16 04:14:02;;;;;;;2.58;1.45;;;8.20;99.90;;;;;;5106678;28;20262;-78
2021/03/16 04:16:28;;;;;;;3.28;1.38;;;8.20;99.90;;;;;;5086876;28;20213;-78
2021/03/16 04:18:55;;;;;;;2.78;1.38;;;8.20;99.90;;;;;;5084755;28;20189;-78
2021/03/16 04:21:22;;;;;;;5.35;1.30;;;8.20;99.90;;;;;;5086885;28;20229;-78
2021/03/16 04:23:48;;;;;;;7.65;1.90;;;8.20;99.90;;;;;;5087224;28;20354;-78
2021/03/16 04:26:15;;;;;;;4.20;1.48;;;8.20;99.90;;;;;;5097710;28;20208;-77
2021/03/16 04:28:42;;;;;;;2.45;1.13;;;8.20;99.90;;;;;;5100125;28;20698;-79
2021/03/16 04:31:08;;;;;;;4.93;1.60;;;8.20;99.90;;;;;;5086115;28;20217;-80
2021/03/16 04:33:35;;;;;;;5.47;1.63;;;8.10;99.90;;;;;;5072705;28;20317;-80
2021/03/16 04:36:01;;;;;;;3.45;1.00;;;8.20;99.90;;;;;;5073528;28;20202;-79
2021/03/16 04:38:27;;;;;;;6.22;1.40;;;8.20;99.90;;;;;;5083917;28;20209;-78
2021/03/16 04:40:53;;;;;;;4.10;1.13;;;8.10;99.90;;;;;;5077927;28;20691;-78
2021/03/16 04:43:19;;;;;;;4.82;1.13;;;8.10;99.90;;;;;;5084160;28;20218;-78
2021/03/16 04:45:46;;;;;;;8.60;1.50;;;8.10;99.90;;;;;;5092314;28;20221;-78
2021/03/16 04:48:13;;;;;;;3.03;1.48;;;8.10;99.90;;;;;;5089941;28;20205;-78
2021/03/16 04:50:39;;;;;;;6.80;1.40;;;8.10;99.90;;;;;;5073218;28;20990;-78
2021/03/16 04:53:05;;;;;;;3.92;2.20;;;8.10;99.90;;;;;;5080261;28;20203;-78
2021/03/16 04:55:34;;;;;;;5.10;1.60;;;8.10;99.90;;;;;;5092793;28;20209;-78
2021/03/16 04:58:00;;;;;;;3.13;1.25;;;8.10;99.90;;;;;;5093214;28;20235;-78
2021/03/16 05:00:27;;;;;;;1.73;1.30;;;8.10;99.90;;;;;;5072008;28;20279;-79
2021/03/16 05:02:54;;;;;;;3.42;1.48;;;8.20;99.90;;;;;;5072668;28;20210;-78
2021/03/16 05:05:20;;;;;;;7.03;1.85;;;8.10;99.90;;;;;;5072736;28;20284;-78
2021/03/16 05:07:47;;;;;;;3.35;1.25;;;8.10;99.90;;;;;;5073466;28;20244;-77
2021/03/16 05:10:13;;;;;;;6.75;1.42;;;8.10;99.90;;;;;;5072780;28;20252;-78
2021/03/16 05:12:40;;;;;;;5.47;1.20;;;8.10;99.90;;;;;;5073328;28;20593;-78
2021/03/16 05:15:07;;;;;;;2.22;1.38;;;8.10;99.90;;;;;;5092982;28;20224;-77
2021/03/16 05:17:33;;;;;;;4.55;1.70;;;8.10;99.90;;;;;;5080279;28;20581;-77
2021/03/16 05:20:00;;;;;;;7.20;1.92;;;8.10;99.90;;;;;;5072501;28;20260;-77
2021/03/16 05:22:27;;;;;;;4.63;1.30;;;8.10;99.90;;;;;;5074176;28;20309;-78
2021/03/16 05:24:53;;;;;;;3.85;1.70;;;8.10;99.90;;;;;;5091717;28;20336;-79
2021/03/16 05:27:19;;;;;;;5.03;1.50;;;8.10;99.90;;;;;;5072303;28;20225;-77
2021/03/16 05:29:45;;;;;;;6.25;1.42;;;8.10;99.90;;;;;;5072192;28;20238;-78
2021/03/16 05:32:12;;;;;;;3.95;1.20;;;8.10;99.90;;;;;;5072457;28;20244;-78
2021/03/16 05:34:38;;;;;;;3.80;1.70;;;8.10;99.90;;;;;;5071722;28;20201;-78
2021/03/16 05:37:05;;;;;;;4.20;1.83;;;8.10;99.90;;;;;;5072102;28;20218;-79
2021/03/16 05:39:31;;;;;;;5.35;1.45;;;8.10;99.90;;;;;;5071977;28;20622;-78
2021/03/16 05:41:58;;;;;;;3.25;2.17;;;8.10;99.90;;;;;;5071874;28;20291;-78
2021/03/16 05:44:24;;;;;;;5.28;2.78;;;8.10;99.90;;;;;;5078645;28;20221;-78
2021/03/16 05:46:51;;;;;;;3.08;1.70;;;8.10;99.90;;;;;;5081419;28;20197;-78
2021/03/16 05:49:18;;;;;;;5.57;1.80;;;8.10;99.90;;;;;;5078000;28;20221;-78
2021/03/16 05:51:45;;;;;;;2.33;1.30;;;8.10;99.90;;;;;;5080594;28;20189;-82
2021/03/16 05:54:12;;;;;;;10.30;1.50;;;8.10;99.90;;;;;;5092211;28;20213;-78
2021/03/16 05:56:40;;;;;;;7.32;2.65;;;8.10;99.90;;;;;;5092214;28;20201;-78
2021/03/16 05:59:07;;;;;;;5.78;1.60;;;8.10;99.90;;;;;;5076441;28;20862;-79
2021/03/16 06:01:33;;;;;;;6.68;1.80;;;8.10;99.90;;;;;;5075273;28;20217;-78
2021/03/16 06:04:00;;;;;;;3.53;1.38;;;8.10;99.90;;;;;;5078543;28;20225;-78
2021/03/16 06:06:26;;;;;;;3.70;1.30;;;8.10;99.90;;;;;;5071915;28;20198;-78
2021/03/16 06:08:53;;;;;;;3.05;1.55;;;8.10;99.90;;;;;;5073166;28;20202;-78
2021/03/16 06:11:20;;;;;;;3.42;1.80;;;8.10;99.90;;;;;;5080627;28;20744;-79
2021/03/16 06:13:52;;;;;;;5.88;1.67;;;8.10;99.90;;;;;;5083278;28;20209;-79
2021/03/16 06:16:19;;;;;;;6.35;1.38;;;8.10;99.90;;;;;;5088683;28;20198;-79
2021/03/16 06:18:46;;;;;;;10.52;1.27;;;8.10;99.90;;;;;;5071562;28;20206;-79
2021/03/16 06:21:18;;;;;;;2.55;1.20;;;8.10;99.90;;;;;;5076265;28;20241;-78
2021/03/16 06:23:52;;;;;;;7.13;1.60;;;8.00;99.90;;;;;;5080129;28;20681;-79
2021/03/16 06:26:20;;;;;;;3.53;2.15;;;8.00;99.90;;;;;;5071439;28;20241;-77
2021/03/16 06:28:46;;;;;;;8.95;2.40;;;8.00;99.90;;;;;;5071731;28;20218;-77
2021/03/16 06:31:21;;;;;;;6.45;1.80;;;8.00;99.90;;;;;;5071715;28;20565;-78
2021/03/16 06:33:49;;;;;;;5.28;1.50;;;8.00;99.90;;;;;;5078642;28;20205;-78
2021/03/16 06:36:15;;;;;;;5.97;1.63;;;8.00;99.90;;;;;;5070825;28;20218;-78
2021/03/16 06:38:41;;;;;;;3.25;1.35;;;8.00;99.90;;;;;;5072038;28;20244;-79
2021/03/16 06:41:10;;;;;;;3.63;1.30;;;8.00;99.90;;;;;;5071201;28;20225;-78
2021/03/16 06:43:38;;;;;;;4.18;1.20;;;8.00;99.90;;;;;;5073296;28;20210;-78
2021/03/16 06:46:04;;;;;;;6.70;1.92;;;8.00;99.90;;;;;;5078278;28;20197;-79
2021/03/16 06:48:34;;;;;;;5.30;1.50;;;8.00;99.90;;;;;;5070589;28;20221;-78
2021/03/16 06:51:10;;;;;;;3.50;1.55;;;8.00;99.90;;;;;;5071308;28;20569;-78
2021/03/16 06:53:37;;;;;;;2.65;1.20;;;7.90;99.90;;;;;;5069674;28;20221;-77
2021/03/16 06:56:03;;;;;;;3.28;1.75;;;8.00;99.90;;;;;;5070616;28;20243;-78
2021/03/16 06:58:31;;;;;;;4.65;1.27;;;8.00;99.90;;;;;;5071071;28;20197;-80
2021/03/16 07:01:05;;;;;;;4.15;1.55;;;8.00;99.90;;;;;;5078364;28;20221;-80
2021/03/16 07:03:31;;;;;;;4.60;1.48;;;8.10;99.90;;;;;;5079646;28;20557;-80
2021/03/16 07:06:09;;;;;;;2.85;1.33;;;8.10;99.90;;;;;;5083629;28;20226;-80
2021/03/16 07:08:35;;;;;;;6.97;1.35;;;8.00;99.90;;;;;;5074660;28;20610;-79
2021/03/16 07:11:03;;;;;;;4.95;1.33;;;8.00;99.90;;;;;;5080655;28;20221;-80
2021/03/16 07:13:31;;;;;;;3.95;1.60;;;8.00;99.90;;;;;;5072270;28;20186;-80
2021/03/16 07:15:58;;;;;;;2.50;1.60;;;8.00;99.90;;;;;;5075016;28;20210;-80
2021/03/16 07:18:25;;;;;;;3.45;1.40;;;8.00;99.90;;;;;;5077643;28;20210;-80
2021/03/16 07:20:56;;;;;;;2.90;1.13;;;8.00;99.90;;;;;;5070232;28;20723;-79
2021/03/16 07:23:24;;;;;;;3.92;1.30;;;8.00;99.90;;;;;;5070466;28;20209;-76
2021/03/16 07:25:51;;;;;;;9.35;2.13;;;8.00;99.90;;;;;;5070427;28;20182;-79
2021/03/16 07:28:18;;;;;;;5.20;2.28;;;8.10;99.90;;;;;;5070183;28;20213;-76
2021/03/16 07:30:45;;;;;;;6.55;2.28;;;8.00;99.90;;;;;;5070370;28;20221;-76
2021/03/16 07:33:14;;;;;;;2.63;1.15;;;8.00;99.90;;;;;;5070219;28;20214;-76
2021/03/16 07:35:42;;;;;;;2.45;1.08;;;8.00;99.90;;;;;;5070336;28;20202;-76
2021/03/16 07:38:09;;;;;;;3.55;1.27;;;8.00;99.90;;;;;;5070165;28;20209;-76
2021/03/16 07:40:36;;;;;;;3.00;1.20;;;8.00;99.90;;;;;;5070216;28;20224;-76
2021/03/16 07:43:02;;;;;;;4.55;1.33;;;8.10;99.90;;;;;;5070108;28;20252;-76
2021/03/16 07:45:30;;;;;;;4.40;1.42;;;8.10;99.90;;;;;;5079802;28;20220;-76
2021/03/16 07:47:57;;;;;;;4.55;1.70;;;8.20;99.90;;;;;;5070974;28;20214;-76
2021/03/16 07:50:28;;;;;;;4.47;1.63;;;8.40;99.90;;;;;;5084440;28;20213;-76
2021/03/16 07:52:56;;;;;;;2.17;1.17;;;8.60;99.90;;;;;;5070235;28;20210;-76
2021/03/16 07:55:26;;;;;;;9.77;1.45;;;8.90;99.90;;;;;;5075985;28;20641;-76
2021/03/16 07:57:53;;;;;;;5.72;1.13;;;9.20;99.90;;;;;;5072161;28;20201;-76
2021/03/16 08:00:29;;;;;;;3.38;1.33;;;9.40;99.90;;;;;;5090213;28;20224;-76
2021/03/16 08:02:59;;;;;;;2.65;1.20;;;9.60;99.90;;;;;;5090360;28;20245;-76
2021/03/16 08:05:26;;;;;;;1.55;0.90;;;9.60;99.90;;;;;;5076093;28;20198;-76
2021/03/16 08:07:53;;;;;;;1.75;1.15;;;9.60;99.90;;;;;;5084497;28;20205;-76
2021/03/16 08:10:27;;;;;;;3.28;1.35;;;9.40;99.90;;;;;;5080868;28;20214;-76
2021/03/16 08:13:00;;;;;;;4.30;1.52;;;9.20;99.90;;;;;;5090019;28;20197;-76
2021/03/16 08:15:26;;;;;;;3.85;1.33;;;9.20;99.90;;;;;;5089361;28;20217;-76
2021/03/16 08:17:59;;;;;;;3.17;1.10;;;9.20;99.90;;;;;;5073479;28;20221;-76
2021/03/16 08:20:26;;;;;;;9.30;1.70;;;9.10;99.90;;;;;;5072887;28;20279;-76
2021/03/16 08:23:07;;;;;;;1.95;1.30;;;9.00;99.90;;;;;;5082285;28;20218;-76
2021/03/16 08:25:34;;;;;;;1.23;0.90;;;9.00;99.90;;;;;;5083113;28;20194;-76
2021/03/16 08:28:06;;;;;;;1.92;1.30;;;9.00;99.90;;;;;;5074446;28;20218;-76
2021/03/16 08:30:34;;;;;;;2.45;1.13;;;9.00;99.90;;;;;;5074037;28;20646;-76
2021/03/16 08:33:08;;;;;;;5.15;1.27;;;9.00;99.90;;;;;;5082644;28;20218;-75
2021/03/16 08:35:35;;;;;;;4.25;1.10;;;9.00;99.90;;;;;;5085448;28;20217;-76
2021/03/16 08:38:01;;;;;;;3.17;1.30;;;8.90;99.90;;;;;;5073440;28;20703;-76
2021/03/16 08:40:27;;;;;;;2.58;1.30;;;8.90;99.90;;;;;;5089156;28;20224;-76
2021/03/16 08:42:54;;;;;;;3.17;1.35;;;8.90;99.90;;;;;;5092646;28;20214;-76
2021/03/16 08:45:31;;;;;;;2.42;1.23;;;8.90;99.90;;;;;;5080042;28;20219;-75
2021/03/16 08:47:57;;;;;;;1.95;1.33;;;8.90;99.90;;;;;;5073294;28;20679;-75
2021/03/16 08:50:25;;;;;;;2.30;1.45;;;8.90;99.90;;;;;;5073421;28;20225;-76
2021/03/16 08:52:51;;;;;;;6.75;1.27;;;8.80;99.90;;;;;;5085616;28;20205;-76
2021/03/16 08:55:26;;;;;;;3.97;1.73;;;8.80;99.90;;;;;;5093649;28;20204;-76
2021/03/16 08:57:54;;;;;;;5.65;1.60;;;8.70;99.90;;;;;;5074516;28;20727;-75
2021/03/16 09:00:27;;;;;;;4.20;1.60;;;8.80;99.90;;;;;;5085879;28;20307;-76
2021/03/16 09:02:53;;;;;;;2.75;1.20;;;8.90;99.90;;;;;;5073502;28;20194;-76
2021/03/16 09:05:26;;;;;;;2.22;1.35;;;9.00;99.90;;;;;;5081071;28;20194;-76
2021/03/16 09:07:57;;;;;;;2.50;1.13;;;9.00;99.90;;;;;;5090360;28;20201;-76
2021/03/16 09:10:23;;;;;;;1.70;1.15;;;9.00;99.90;;;;;;5091106;28;20224;-76
2021/03/16 09:12:51;;;;;;;1.30;0.90;;;9.10;99.90;;;;;;5085457;28;20194;-76
2021/03/16 09:15:21;;;;;;;6.07;1.30;;;9.00;99.90;;;;;;5075910;28;20220;-76
2021/03/16 09:17:49;;;;;;;6.00;1.52;;;9.00;99.90;;;;;;5091067;28;20237;-76
2021/03/16 09:20:17;;;;;;;3.58;1.13;;;8.80;99.90;;;;;;5075679;28;20244;-76
2021/03/16 09:22:46;;;;;;;2.33;1.23;;;8.80;99.90;;;;;;5089779;28;20213;-76
2021/03/16 09:25:13;;;;;;;1.75;1.40;;;8.90;99.90;;;;;;5088674;28;20241;-76
2021/03/16 09:27:42;;;;;;;8.90;2.58;;;8.80;99.90;;;;;;5094311;28;20216;-76
2021/03/16 09:30:10;;;;;;;2.13;1.00;;;8.90;99.90;;;;;;5098288;28;20760;-76
2021/03/16 09:32:42;;;;;;;3.45;1.17;;;8.90;99.90;;;;;;5080478;28;20581;-77
2021/03/16 09:35:10;;;;;;;4.80;1.40;;;8.80;99.90;;;;;;5074155;28;20221;-76
2021/03/16 09:37:43;;;;;;;12.63;2.90;;;8.90;99.90;;;;;;5082279;28;20214;-76
2021/03/16 09:40:10;;;;;;;4.80;1.02;;;9.10;99.90;;;;;;5078419;28;20209;-76
2021/03/16 09:42:40;;;;;;;2.70;1.13;;;9.20;99.90;;;;;;5079252;28;20668;-76
2021/03/16 09:45:15;;;;;;;3.75;1.10;;;9.40;99.90;;;;;;5080320;28;20684;-76
2021/03/16 09:47:42;;;;;;;5.18;1.08;;;9.60;99.90;;;;;;5078870;28;20292;-76
2021/03/16 09:50:13;;;;;;;2.45;1.10;;;9.70;99.90;;;;;;5085855;28;20233;-76
2021/03/16 09:52:40;;;;;;;4.30;1.00;;;9.80;99.90;;;;;;5096563;28;20652;-76
2021/03/16 09:55:08;;;;;;;2.80;1.42;;;9.80;99.90;;;;;;5072455;28;20194;-76
2021/03/16 09:57:36;;;;;;;2.65;1.15;;;9.80;99.90;;;;;;5088109;28;20549;-76
2021/03/16 10:00:04;;;;;;;6.82;1.73;;;9.80;99.90;;;;;;5090252;28;20296;-76
2021/03/16 10:02:35;;;;;;;2.85;1.20;;;9.80;99.90;;;;;;5089176;28;20622;-76
2021/03/16 10:05:08;;;;;;;2.90;1.20;;;9.70;99.90;;;;;;5073078;28;20288;-76
2021/03/16 10:07:35;;;;;;;2.55;1.02;;;9.70;99.90;;;;;;5074984;28;20217;-76
2021/03/16 10:10:07;;;;;;;4.82;1.45;;;9.80;99.90;;;;;;5081176;28;20213;-76
2021/03/16 10:12:33;;;;;;;3.47;1.20;;;9.70;99.90;;;;;;5090521;28;20216;-76
2021/03/16 10:15:00;;;;;;;1.70;1.17;;;9.80;99.90;;;;;;5071645;28;20573;-77
2021/03/16 10:17:26;;;;;;;2.28;1.05;;;9.80;99.90;;;;;;5075344;28;20217;-76
2021/03/16 10:19:54;;;;;;;6.07;1.30;;;9.70;99.90;;;;;;5081414;28;20225;-76
2021/03/16 10:22:26;;;;;;;2.45;1.35;;;9.70;99.90;;;;;;5084674;28;20228;-76
2021/03/16 10:24:55;;;;;;;1.05;0.95;;;9.70;99.90;;;;;;5080958;28;20213;-76
2021/03/16 10:27:26;;;;;;;3.38;1.20;;;9.80;99.90;;;;;;5091781;28;20217;-76
2021/03/16 10:29:52;;;;;;;1.25;0.93;;;9.80;99.90;;;;;;5086632;28;20198;-76
2021/03/16 10:32:18;;;;;;;1.95;1.17;;;9.90;99.90;;;;;;5071447;28;20230;-76
2021/03/16 10:34:45;;;;;;;2.22;0.90;;;9.90;99.90;;;;;;5073067;28;20271;-77
2021/03/16 10:37:17;;;;;;;2.53;1.27;;;9.90;99.90;;;;;;5071348;28;20312;-77
2021/03/16 10:39:44;;;;;;;4.57;1.10;;;9.90;99.90;;;;;;5071224;28;20651;-76
2021/03/16 10:42:11;;;;;;;3.70;1.60;;;9.90;99.90;;;;;;5069769;28;20860;-77
2021/03/16 10:44:37;;;;;;;3.75;1.40;;;9.90;99.90;;;;;;5079662;28;20215;-76
2021/03/16 10:47:03;;;;;;;1.50;1.20;;;9.80;99.90;;;;;;5074166;28;20264;-76
2021/03/16 10:49:29;;;;;;;1.63;0.98;;;9.80;99.90;;;;;;5070474;28;20716;-76
2021/03/16 10:51:55;;;;;;;4.95;1.95;;;9.70;99.90;;;;;;5070933;28;20589;-77
2021/03/16 10:54:21;;;;;;;3.30;1.20;;;9.70;99.90;;;;;;5073300;28;20193;-76
2021/03/16 10:56:50;;;;;;;1.35;0.70;;;9.70;99.90;;;;;;5089125;28;20212;-76
2021/03/16 10:59:17;;;;;;;2.85;0.93;;;9.70;99.90;;;;;;5090693;28;20270;-76
2021/03/16 11:01:43;;;;;;;2.60;1.27;;;9.60;99.90;;;;;;5087040;28;20237;-78
2021/03/16 11:04:10;;;;;;;3.17;1.00;;;9.60;99.90;;;;;;5077769;28;20233;-78
2021/03/16 11:06:36;;;;;;;2.85;1.00;;;9.60;99.90;;;;;;5084536;28;20182;-77
2021/03/16 11:09:03;;;;;;;3.38;1.00;;;9.70;99.90;;;;;;5092896;28;20212;-78
2021/03/16 11:11:29;;;;;;;1.40;0.90;;;9.70;99.90;;;;;;5088979;28;20197;-78
2021/03/16 11:13:57;;;;;;;2.45;0.90;;;9.70;99.90;;;;;;5081450;28;20307;-79
2021/03/16 11:16:23;;;;;;;1.45;0.85;;;9.70;99.90;;;;;;5078148;28;20352;-79
2021/03/16 11:18:49;;;;;;;3.00;1.00;;;9.70;99.90;;;;;;5069741;28;20634;-78
2021/03/16 11:21:16;;;;;;;1.65;1.20;;;9.70;99.90;;;;;;5070307;28;20324;-79
2021/03/16 11:23:42;;;;;;;2.35;1.20;;;9.70;99.90;;;;;;5069717;28;20220;-79
2021/03/16 11:26:08;;;;;;;2.95;1.10;;;9.70;99.90;;;;;;5082659;28;20217;-79
2021/03/16 11:28:34;;;;;;;2.47;0.90;;;9.70;99.90;;;;;;5109811;28;20189;-79
2021/03/16 11:31:02;;;;;;;3.53;1.55;;;9.70;99.90;;;;;;5098612;28;20223;-78
2021/03/16 11:33:28;;;;;;;1.95;0.88;;;9.70;99.90;;;;;;5089692;28;20720;-77
2021/03/16 11:35:55;;;;;;;3.00;1.13;;;9.70;99.90;;;;;;5079174;28;20293;-78
2021/03/16 11:38:21;;;;;;;3.92;1.17;;;9.80;99.90;;;;;;5078655;28;20308;-76
2021/03/16 11:40:48;;;;;;;5.50;1.23;;;9.80;99.90;;;;;;5072309;28;20213;-76
2021/03/16 11:43:15;;;;;;;1.95;1.25;;;9.80;99.90;;;;;;5073451;28;20415;-78
2021/03/16 11:45:42;;;;;;;1.77;1.00;;;9.80;99.90;;;;;;5080502;28;20284;-77
2021/03/16 11:48:10;;;;;;;1.25;1.00;;;9.80;99.90;;;;;;5073399;28;20202;-76
2021/03/16 11:50:37;;;;;;;3.50;0.77;;;9.80;99.90;;;;;;5073513;28;20204;-77
2021/03/16 11:53:03;;;;;;;2.42;1.08;;;9.80;99.90;;;;;;5073417;28;20620;-76
2021/03/16 11:55:30;;;;;;;2.97;1.40;;;9.80;99.90;;;;;;5088912;28;20448;-77
2021/03/16 11:57:57;;;;;;;3.85;1.10;;;9.80;99.90;;;;;;5072794;28;20752;-77
2021/03/16 12:00:23;;;;;;;3.70;1.15;;;9.80;99.90;;;;;;5072042;28;20190;-77
2021/03/16 12:02:50;;;;;;;2.50;1.10;;;9.70;99.90;;;;;;5072809;28;20893;-77
2021/03/16 12:05:17;;;;;;;2.15;0.85;;;9.80;99.90;;;;;;5079184;28;20218;-78
2021/03/16 12:07:43;;;;;;;1.48;1.00;;;9.80;99.90;;;;;;5081891;28;20300;-77
2021/03/16 12:10:10;;;;;;;4.38;0.98;;;9.80;99.90;;;;;;5071931;28;20225;-77
2021/03/16 12:12:37;;;;;;;7.15;1.83;;;9.80;99.90;;;;;;5076685;28;20297;-77
2021/03/16 12:15:06;;;;;;;3.03;1.10;;;9.90;99.90;;;;;;5078517;28;20218;-77
2021/03/16 12:17:32;;;;;;;4.72;1.45;;;9.90;99.90;;;;;;5081197;28;20206;-77
2021/03/16 12:19:59;;;;;;;1.95;1.05;;;9.90;99.90;;;;;;5072770;28;20343;-77
2021/03/16 12:22:26;;;;;;;2.97;1.00;;;9.90;99.90;;;;;;5091570;28;20224;-77
2021/03/16 12:24:52;;;;;;;1.95;0.98;;;9.80;99.90;;;;;;5093037;28;20803;-77
2021/03/16 12:27:19;;;;;;;2.58;1.10;;;9.90;99.90;;;;;;5086845;28;20202;-76
2021/03/16 12:29:45;;;;;;;2.88;1.10;;;9.90;99.90;;;;;;5073907;28;20214;-77
2021/03/16 12:32:11;;;;;;;1.98;1.05;;;9.90;99.90;;;;;;5082060;28;20210;-77
2021/03/16 12:34:37;;;;;;;3.10;1.10;;;10.00;99.90;;;;;;5072851;28;20205;-77
2021/03/16 12:37:04;;;;;;;2.60;1.00;;;10.00;99.90;;;;;;5075442;28;20198;-76
2021/03/16 12:39:31;;;;;;;6.70;1.15;;;10.00;99.90;;;;;;5082348;28;20197;-76
2021/03/16 12:41:58;;;;;;;1.50;1.13;;;10.00;99.90;;;;;;5081949;28;20237;-76
2021/03/16 12:44:25;;;;;;;1.15;0.80;;;10.00;99.90;;;;;;5085953;28;20854;-76
2021/03/16 12:46:51;;;;;;;3.42;1.55;;;10.00;99.90;;;;;;5076768;28;20271;-75
2021/03/16 12:49:17;;;;;;;2.53;1.08;;;10.00;99.90;;;;;;5080204;28;20206;-77
2021/03/16 12:51:43;;;;;;;3.85;1.40;;;10.10;99.90;;;;;;5078699;28;20189;-76
2021/03/16 12:54:10;;;;;;;4.10;1.23;;;10.10;99.90;;;;;;5080905;28;20316;-76
2021/03/16 12:56:37;;;;;;;3.63;1.20;;;10.10;99.90;;;;;;5079154;28;20262;-77
2021/03/16 12:59:03;;;;;;;5.43;1.40;;;10.10;99.90;;;;;;5081237;28;20591;-77